Time,TemperatureF,DewpointF,PressureIn,WindDirection,WindDirectionDegrees,WindSpeedMPH,WindSpeedGustMPH,Humidity,HourlyPrecipIn,Conditions,Clouds,dailyrainin,SoftwareType,DateUTC
2013-02-17 00:00:00,54.8,46.7,30.08,NNW,342,2.0,2.0,74,0.00,,,0.02,Wunderground v.1.15,2013-02-17 05:00:00,
2013-02-17 00:10:00,54.6,46.5,30.08,SW,228,1.0,2.0,74,0.00,,,0.00,Wunderground v.1.15,2013-02-17 05:10:00,
2013-02-17 00:15:00,54.5,46.4,30.08,West,273,2.0,2.0,74,0.00,,,0.00,Wunderground v.1.15,2013-02-17 05:15:00,
2013-02-17 00:25:00,54.3,46.5,30.08,West,276,1.0,1.0,75,0.00,,,0.00,Wunderground v.1.15,2013-02-17 05:25:00,
2013-02-17 00:30:00,54.2,46.4,30.08,West,262,2.0,7.0,75,0.00,,,0.00,Wunderground v.1.15,2013-02-17 05:30:00,
2013-02-17 00:40:00,54.2,46.1,30.09,NNW,346,2.0,2.0,74,0.00,,,0.00,Wunderground v.1.15,2013-02-17 05:40:00,
2013-02-17 00:50:00,54.0,46.3,30.08,North,8,1.0,1.0,75,0.00,,,0.00,Wunderground v.1.15,2013-02-17 05:50:00,
2013-02-17 00:55:00,54.0,46.3,30.09,WSW,249,2.0,2.0,75,0.00,,,0.00,Wunderground v.1.15,2013-02-17 05:55:00,
2013-02-17 01:00:00,53.9,46.2,30.09,West,260,2.0,2.0,75,0.00,,,0.00,Wunderground v.1.15,2013-02-17 06:00:00,
2013-02-17 01:10:00,53.7,46.3,30.09,North,357,1.0,2.0,76,0.00,,,0.00,Wunderground v.1.15,2013-02-17 06:10:00,
2013-02-17 01:20:00,53.7,46.3,30.09,North,354,1.0,1.0,76,0.00,,,0.00,Wunderground v.1.15,2013-02-17 06:20:00,
2013-02-17 01:25:00,53.6,46.2,30.09,West,276,1.0,1.0,76,0.00,,,0.00,Wunderground v.1.15,2013-02-17 06:25:00,
2013-02-17 01:35:00,53.5,46.1,30.09,North,6,1.0,4.0,76,0.00,,,0.00,Wunderground v.1.15,2013-02-17 06:35:00,
2013-02-17 01:45:00,53.4,46.0,30.09,North,360,1.0,1.0,76,0.00,,,0.00,Wunderground v.1.15,2013-02-17 06:45:00,
2013-02-17 01:55:00,53.5,45.8,30.09,NNW,333,2.0,2.0,75,0.00,,,0.00,Wunderground v.1.15,2013-02-17 06:55:00,
2013-02-17 02:00:00,53.5,45.8,30.09,NW,326,1.0,1.0,75,0.00,,,0.00,Wunderground v.1.15,2013-02-17 07:00:00,
2013-02-17 02:10:00,53.3,45.6,30.09,West,266,1.0,4.0,75,0.00,,,0.00,Wunderground v.1.15,2013-02-17 07:10:00,
2013-02-17 02:20:00,53.2,45.5,30.09,NW,314,1.0,1.0,75,0.00,,,0.00,Wunderground v.1.15,2013-02-17 07:20:00,
2013-02-17 02:30:00,52.9,45.5,30.09,North,353,2.0,2.0,76,0.00,,,0.00,Wunderground v.1.15,2013-02-17 07:30:00,
2013-02-17 02:40:00,52.8,45.1,30.09,NNE,29,2.0,2.0,75,0.00,,,0.00,Wunderground v.1.15,2013-02-17 07:40:00,
2013-02-17 02:50:00,52.6,44.9,30.09,West,274,2.0,2.0,75,0.00,,,0.00,Wunderground v.1.15,2013-02-17 07:50:00,
2013-02-17 03:00:00,52.6,44.5,30.09,West,269,2.0,2.0,74,0.00,,,0.00,Wunderground v.1.15,2013-02-17 08:00:00,
2013-02-17 03:10:00,52.4,44.0,30.09,NE,42,1.0,1.0,73,0.00,,,0.00,Wunderground v.1.15,2013-02-17 08:10:00,
2013-02-17 03:20:00,52.3,43.9,30.09,WNW,294,1.0,1.0,73,0.00,,,0.00,Wunderground v.1.15,2013-02-17 08:20:00,
2013-02-17 03:30:00,52.2,43.1,30.10,NNW,328,2.0,2.0,71,0.00,,,0.00,Wunderground v.1.15,2013-02-17 08:30:00,
2013-02-17 03:40:00,52.3,42.4,30.10,NNW,335,3.0,4.0,69,0.00,,,0.00,Wunderground v.1.15,2013-02-17 08:40:00,
2013-02-17 03:50:00,52.1,37.8,30.11,West,278,4.0,4.0,58,0.00,,,0.00,Wunderground v.1.15,2013-02-17 08:50:00,
2013-02-17 03:55:00,52.0,38.1,30.11,NW,312,3.0,4.0,59,0.00,,,0.00,Wunderground v.1.15,2013-02-17 08:55:00,
2013-02-17 04:00:00,51.8,37.9,30.11,NW,324,3.0,3.0,59,0.00,,,0.00,Wunderground v.1.15,2013-02-17 09:00:00,
2013-02-17 04:10:00,51.5,38.5,30.12,NW,321,4.0,4.0,61,0.00,,,0.00,Wunderground v.1.15,2013-02-17 09:10:00,
2013-02-17 04:20:00,51.1,38.5,30.12,NW,325,3.0,3.0,62,0.00,,,0.00,Wunderground v.1.15,2013-02-17 09:20:00,
2013-02-17 04:30:00,50.6,37.6,30.13,West,271,3.0,3.0,61,0.00,,,0.00,Wunderground v.1.15,2013-02-17 09:30:00,
2013-02-17 04:40:00,50.2,37.3,30.13,NNW,330,3.0,5.0,61,0.00,,,0.00,Wunderground v.1.15,2013-02-17 09:40:00,
2013-02-17 04:50:00,49.9,36.6,30.13,North,357,4.0,4.0,60,0.00,,,0.00,Wunderground v.1.15,2013-02-17 09:50:00,
2013-02-17 05:00:00,49.6,36.3,30.14,NNE,22,3.0,3.0,60,0.00,,,0.00,Wunderground v.1.15,2013-02-17 10:00:00,
2013-02-17 05:10:00,49.3,36.4,30.14,NNW,328,3.0,6.0,61,0.00,,,0.00,Wunderground v.1.15,2013-02-17 10:10:00,
2013-02-17 05:20:00,49.1,36.2,30.15,West,264,4.0,4.0,61,0.00,,,0.00,Wunderground v.1.15,2013-02-17 10:20:00,
2013-02-17 05:30:00,48.9,37.3,30.16,WNW,296,2.0,3.0,64,0.00,,,0.00,Wunderground v.1.15,2013-02-17 10:30:00,
2013-02-17 05:40:00,48.5,36.5,30.16,WNW,291,4.0,5.0,63,0.00,,,0.00,Wunderground v.1.15,2013-02-17 10:40:00,
2013-02-17 05:50:00,48.2,35.4,30.17,NW,321,4.0,5.0,61,0.00,,,0.00,Wunderground v.1.15,2013-02-17 10:50:00,
2013-02-17 05:55:00,47.9,35.1,30.17,NW,322,3.0,5.0,61,0.00,,,0.00,Wunderground v.1.15,2013-02-17 10:55:00,
2013-02-17 06:00:00,47.7,35.3,30.17,NNW,333,2.0,2.0,62,0.00,,,0.00,Wunderground v.1.15,2013-02-17 11:00:00,
2013-02-17 06:10:00,47.3,33.3,30.17,NW,321,4.0,4.0,58,0.00,,,0.00,Wunderground v.1.15,2013-02-17 11:10:00,
2013-02-17 06:20:00,47.0,33.0,30.18,NNW,335,3.0,3.0,58,0.00,,,0.00,Wunderground v.1.15,2013-02-17 11:20:00,
2013-02-17 06:30:00,46.7,30.0,30.19,NW,319,4.0,4.0,52,0.00,,,0.00,Wunderground v.1.15,2013-02-17 11:30:00,
2013-02-17 06:40:00,46.4,29.2,30.19,NNW,333,4.0,4.0,51,0.00,,,0.00,Wunderground v.1.15,2013-02-17 11:40:00,
2013-02-17 06:45:00,46.2,28.6,30.19,NNW,333,3.0,4.0,50,0.00,,,0.00,Wunderground v.1.15,2013-02-17 11:45:00,
2013-02-17 06:55:00,45.8,28.2,30.19,West,270,2.0,4.0,50,0.00,,,0.00,Wunderground v.1.15,2013-02-17 11:55:00,
2013-02-17 07:00:00,45.8,27.2,30.20,NW,307,3.0,3.0,48,0.00,,,0.00,Wunderground v.1.15,2013-02-17 12:00:00,
2013-02-17 07:10:00,45.6,26.5,30.20,NNW,342,2.0,2.0,47,0.00,,,0.00,Wunderground v.1.15,2013-02-17 12:10:00,
2013-02-17 07:15:00,45.6,26.5,30.20,NW,305,2.0,2.0,47,0.00,,,0.00,Wunderground v.1.15,2013-02-17 12:15:00,
2013-02-17 07:25:00,46.3,26.6,30.21,SW,215,3.0,3.0,46,0.00,,,0.00,Wunderground v.1.15,2013-02-17 12:25:00,
2013-02-17 07:35:00,47.2,26.9,30.21,NNW,333,2.0,3.0,45,0.00,,,0.00,Wunderground v.1.15,2013-02-17 12:35:00,
2013-02-17 07:45:00,47.4,26.0,30.22,NW,314,2.0,7.0,43,0.00,,,0.00,Wunderground v.1.15,2013-02-17 12:45:00,
2013-02-17 07:55:00,47.5,26.1,30.23,NNE,24,3.0,5.0,43,0.00,,,0.00,Wunderground v.1.15,2013-02-17 12:55:00,
2013-02-17 08:00:00,47.6,25.6,30.23,WNW,284,3.0,5.0,42,0.00,,,0.00,Wunderground v.1.15,2013-02-17 13:00:00,
2013-02-17 08:10:00,47.3,25.3,30.23,WNW,300,4.0,4.0,42,0.00,,,0.00,Wunderground v.1.15,2013-02-17 13:10:00,
2013-02-17 08:20:00,47.7,25.1,30.24,NW,308,3.0,3.0,41,0.00,,,0.00,Wunderground v.1.15,2013-02-17 13:20:00,
2013-02-17 08:30:00,48.4,25.8,30.25,WNW,302,3.0,3.0,41,0.00,,,0.00,Wunderground v.1.15,2013-02-17 13:30:00,
2013-02-17 08:40:00,49.5,25.5,30.25,WNW,300,2.0,5.0,39,0.00,,,0.00,Wunderground v.1.15,2013-02-17 13:40:00,
2013-02-17 08:45:00,49.3,25.4,30.25,NNW,330,3.0,5.0,39,0.00,,,0.00,Wunderground v.1.15,2013-02-17 13:45:00,
2013-02-17 08:50:00,49.1,25.2,30.25,West,273,4.0,4.0,39,0.00,,,0.00,Wunderground v.1.15,2013-02-17 13:50:00,
2013-02-17 09:00:00,49.9,24.6,30.25,SW,235,3.0,3.0,37,0.00,,,0.00,Wunderground v.1.15,2013-02-17 14:00:00,
2013-02-17 09:10:00,50.0,24.1,30.26,NW,316,4.0,4.0,36,0.00,,,0.00,Wunderground v.1.15,2013-02-17 14:10:00,
2013-02-17 09:15:00,49.9,23.3,30.26,East,101,3.0,4.0,35,0.00,,,0.00,Wunderground v.1.15,2013-02-17 14:15:00,
2013-02-17 09:20:00,50.1,24.2,30.26,North,11,4.0,5.0,36,0.00,,,0.00,Wunderground v.1.15,2013-02-17 14:20:00,
2013-02-17 09:25:00,49.9,23.3,30.26,NNW,333,4.0,5.0,35,0.00,,,0.00,Wunderground v.1.15,2013-02-17 14:25:00,
2013-02-17 09:30:00,49.7,23.1,30.26,West,264,5.0,5.0,35,0.00,,,0.00,Wunderground v.1.15,2013-02-17 14:30:00,
2013-02-17 09:35:00,49.7,24.5,30.26,NW,319,6.0,7.0,37,0.00,,,0.00,Wunderground v.1.15,2013-02-17 14:35:00,
2013-02-17 09:40:00,50.1,24.8,30.26,West,269,5.0,5.0,37,0.00,,,0.00,Wunderground v.1.15,2013-02-17 14:40:00,
2013-02-17 09:45:00,50.6,23.2,30.27,North,9,4.0,5.0,34,0.00,,,0.00,Wunderground v.1.15,2013-02-17 14:45:00,
2013-02-17 09:55:00,51.3,23.8,30.27,West,276,3.0,3.0,34,0.00,,,0.00,Wunderground v.1.15,2013-02-17 14:55:00,
2013-02-17 10:00:00,51.3,22.4,30.27,North,349,4.0,4.0,32,0.00,,,0.00,Wunderground v.1.15,2013-02-17 15:00:00,
2013-02-17 10:10:00,51.5,22.6,30.27,West,274,3.0,3.0,32,0.00,,,0.00,Wunderground v.1.15,2013-02-17 15:10:00,
2013-02-17 10:15:00,52.2,23.9,30.28,SW,235,3.0,3.0,33,0.00,,,0.00,Wunderground v.1.15,2013-02-17 15:15:00,
2013-02-17 10:20:00,52.2,22.4,30.28,WNW,291,3.0,3.0,31,0.00,,,0.00,Wunderground v.1.15,2013-02-17 15:20:00,
2013-02-17 10:25:00,52.4,24.1,30.27,NW,324,3.0,3.0,33,0.00,,,0.00,Wunderground v.1.15,2013-02-17 15:25:00,
2013-02-17 10:30:00,52.6,24.3,30.27,West,274,3.0,3.0,33,0.00,,,0.00,Wunderground v.1.15,2013-02-17 15:30:00,
2013-02-17 10:35:00,52.8,22.2,30.28,SW,233,3.0,8.0,30,0.00,,,0.00,Wunderground v.1.15,2013-02-17 15:35:00,
2013-02-17 10:40:00,52.7,22.1,30.28,SE,146,4.0,4.0,30,0.00,,,0.00,Wunderground v.1.15,2013-02-17 15:40:00,
2013-02-17 10:45:00,53.3,22.6,30.27,SW,228,3.0,8.0,30,0.00,,,0.00,Wunderground v.1.15,2013-02-17 15:45:00,
2013-02-17 10:50:00,53.6,22.9,30.28,WSW,240,3.0,5.0,30,0.00,,,0.00,Wunderground v.1.15,2013-02-17 15:50:00,
2013-02-17 10:55:00,53.5,22.8,30.28,WNW,297,3.0,5.0,30,0.00,,,0.00,Wunderground v.1.15,2013-02-17 15:55:00,
2013-02-17 11:00:00,53.8,23.1,30.28,NNE,15,3.0,3.0,30,0.00,,,0.00,Wunderground v.1.15,2013-02-17 16:00:00,
2013-02-17 11:10:00,53.7,23.0,30.28,ESE,105,4.0,4.0,30,0.00,,,0.00,Wunderground v.1.15,2013-02-17 16:10:00,
2013-02-17 11:15:00,53.9,21.5,30.28,WNW,302,4.0,5.0,28,0.00,,,0.00,Wunderground v.1.15,2013-02-17 16:15:00,
2013-02-17 11:20:00,53.9,22.3,30.28,WNW,292,4.0,8.0,29,0.00,,,0.00,Wunderground v.1.15,2013-02-17 16:20:00,
2013-02-17 11:25:00,53.5,22.8,30.27,NW,305,3.0,8.0,30,0.00,,,0.00,Wunderground v.1.15,2013-02-17 16:25:00,
2013-02-17 11:30:00,53.7,22.2,30.28,WNW,294,4.0,4.0,29,0.00,,,0.00,Wunderground v.1.15,2013-02-17 16:30:00,
2013-02-17 11:35:00,53.8,22.2,30.27,NW,316,3.0,4.0,29,0.00,,,0.00,Wunderground v.1.15,2013-02-17 16:35:00,
2013-02-17 11:40:00,54.4,22.8,30.27,NW,316,3.0,9.0,29,0.00,,,0.00,Wunderground v.1.15,2013-02-17 16:40:00,
2013-02-17 11:45:00,54.5,23.7,30.27,NNW,335,3.0,9.0,30,0.00,,,0.00,Wunderground v.1.15,2013-02-17 16:45:00,
2013-02-17 11:50:00,54.6,24.5,30.27,West,277,3.0,4.0,31,0.00,,,0.00,Wunderground v.1.15,2013-02-17 16:50:00,
2013-02-17 11:55:00,54.7,23.0,30.27,WNW,284,3.0,4.0,29,0.00,,,0.00,Wunderground v.1.15,2013-02-17 16:55:00,
2013-02-17 12:00:00,55.3,23.5,30.27,SW,225,3.0,6.0,29,0.00,,,0.00,Wunderground v.1.15,2013-02-17 17:00:00,
2013-02-17 12:10:00,55.4,23.6,30.27,WNW,291,3.0,5.0,29,0.00,,,0.00,Wunderground v.1.15,2013-02-17 17:10:00,
2013-02-17 12:15:00,54.8,23.9,30.27,NE,36,4.0,5.0,30,0.00,,,0.00,Wunderground v.1.15,2013-02-17 17:15:00,
2013-02-17 12:20:00,55.3,24.4,30.26,NNE,27,3.0,3.0,30,0.00,,,0.00,Wunderground v.1.15,2013-02-17 17:20:00,
2013-02-17 12:30:00,56.3,25.2,30.26,SW,235,2.0,2.0,30,0.00,,,0.00,Wunderground v.1.15,2013-02-17 17:30:00,
2013-02-17 12:40:00,56.1,23.4,30.26,NW,324,3.0,3.0,28,0.00,,,0.00,Wunderground v.1.15,2013-02-17 17:40:00,
2013-02-17 12:45:00,55.8,23.1,30.26,NW,322,4.0,14.0,28,0.00,,,0.00,Wunderground v.1.15,2013-02-17 17:45:00,
2013-02-17 12:50:00,55.7,23.9,30.26,WSW,256,4.0,4.0,29,0.00,,,0.00,Wunderground v.1.15,2013-02-17 17:50:00,
2013-02-17 13:00:00,56.3,24.4,30.26,WNW,302,3.0,7.0,29,0.00,,,0.00,Wunderground v.1.15,2013-02-17 18:00:00,
2013-02-17 13:10:00,56.7,25.6,30.25,SSW,207,3.0,11.0,30,0.00,,,0.00,Wunderground v.1.15,2013-02-17 18:10:00,
2013-02-17 13:15:00,56.8,24.0,30.25,SSW,213,4.0,11.0,28,0.00,,,0.00,Wunderground v.1.15,2013-02-17 18:15:00,
2013-02-17 13:25:00,57.1,24.3,30.25,WNW,302,3.0,6.0,28,0.00,,,0.00,Wunderground v.1.15,2013-02-17 18:25:00,
2013-02-17 13:30:00,57.3,25.3,30.25,WSW,240,3.0,3.0,29,0.00,,,0.00,Wunderground v.1.15,2013-02-17 18:30:00,
2013-02-17 13:35:00,57.1,23.4,30.25,West,277,4.0,4.0,27,0.00,,,0.00,Wunderground v.1.15,2013-02-17 18:35:00,
2013-02-17 13:45:00,56.5,24.6,30.25,NW,322,4.0,4.0,29,0.00,,,0.00,Wunderground v.1.15,2013-02-17 18:45:00,
2013-02-17 13:55:00,57.5,24.6,30.24,WNW,291,2.0,2.0,28,0.00,,,0.00,Wunderground v.1.15,2013-02-17 18:55:00,
2013-02-17 14:00:00,57.8,25.7,30.24,SW,228,2.0,2.0,29,0.00,,,0.00,Wunderground v.1.15,2013-02-17 19:00:00,
2013-02-17 14:10:00,57.5,25.5,30.24,WNW,288,3.0,3.0,29,0.00,,,0.00,Wunderground v.1.15,2013-02-17 19:10:00,
2013-02-17 14:15:00,57.9,22.2,30.24,WSW,240,2.0,3.0,25,0.00,,,0.00,Wunderground v.1.15,2013-02-17 19:15:00,
2013-02-17 14:25:00,58.3,25.3,30.24,South,177,3.0,9.0,28,0.00,,,0.00,Wunderground v.1.15,2013-02-17 19:25:00,
2013-02-17 14:30:00,58.5,25.5,30.24,SE,129,2.0,2.0,28,0.00,,,0.00,Wunderground v.1.15,2013-02-17 19:30:00,
2013-02-17 14:40:00,58.4,24.5,30.24,WNW,297,2.0,3.0,27,0.00,,,0.00,Wunderground v.1.15,2013-02-17 19:40:00,
2013-02-17 14:45:00,58.1,25.1,30.24,SSW,195,2.0,3.0,28,0.00,,,0.00,Wunderground v.1.15,2013-02-17 19:45:00,
2013-02-17 14:50:00,58.4,27.1,30.24,West,260,2.0,5.0,30,0.00,,,0.00,Wunderground v.1.15,2013-02-17 19:50:00,
2013-02-17 14:55:00,58.8,26.6,30.24,WSW,238,2.0,5.0,29,0.00,,,0.00,Wunderground v.1.15,2013-02-17 19:55:00,
2013-02-17 15:00:00,59.2,26.9,30.24,SW,225,2.0,2.0,29,0.00,,,0.00,Wunderground v.1.15,2013-02-17 20:00:00,
2013-02-17 15:10:00,59.3,26.2,30.24,NW,315,2.0,2.0,28,0.00,,,0.00,Wunderground v.1.15,2013-02-17 20:10:00,
2013-02-17 15:15:00,58.6,25.6,30.24,NW,319,2.0,2.0,28,0.00,,,0.00,Wunderground v.1.15,2013-02-17 20:15:00,
2013-02-17 15:25:00,58.2,26.1,30.24,West,280,3.0,3.0,29,0.00,,,0.00,Wunderground v.1.15,2013-02-17 20:25:00,
2013-02-17 15:30:00,58.6,26.4,30.24,WSW,243,2.0,2.0,29,0.00,,,0.00,Wunderground v.1.15,2013-02-17 20:30:00,
2013-02-17 15:35:00,59.0,27.6,30.24,West,269,2.0,2.0,30,0.00,,,0.00,Wunderground v.1.15,2013-02-17 20:35:00,
2013-02-17 15:45:00,58.5,25.5,30.24,NW,312,2.0,3.0,28,0.00,,,0.00,Wunderground v.1.15,2013-02-17 20:45:00,
2013-02-17 15:55:00,58.4,26.2,30.24,SW,217,2.0,2.0,29,0.00,,,0.00,Wunderground v.1.15,2013-02-17 20:55:00,
2013-02-17 16:00:00,58.5,27.1,30.24,SSW,204,1.0,1.0,30,0.00,,,0.00,Wunderground v.1.15,2013-02-17 21:00:00,
2013-02-17 16:10:00,57.9,25.8,30.24,SE,137,2.0,2.0,29,0.00,,,0.00,Wunderground v.1.15,2013-02-17 21:10:00,
2013-02-17 16:20:00,58.3,27.0,30.24,West,269,2.0,2.0,30,0.00,,,0.00,Wunderground v.1.15,2013-02-17 21:20:00,
2013-02-17 16:25:00,58.0,24.2,30.24,WNW,302,2.0,2.0,27,0.00,,,0.00,Wunderground v.1.15,2013-02-17 21:25:00,
2013-02-17 16:35:00,57.6,24.7,30.24,North,8,1.0,1.0,28,0.00,,,0.00,Wunderground v.1.15,2013-02-17 21:35:00,
2013-02-17 16:45:00,57.6,23.8,30.24,NW,322,2.0,2.0,27,0.00,,,0.00,Wunderground v.1.15,2013-02-17 21:45:00,
2013-02-17 16:55:00,57.8,24.9,30.24,West,270,2.0,2.0,28,0.00,,,0.00,Wunderground v.1.15,2013-02-17 21:55:00,
2013-02-17 17:00:00,58.2,25.2,30.24,NW,319,1.0,4.0,28,0.00,,,0.00,Wunderground v.1.15,2013-02-17 22:00:00,
2013-02-17 17:10:00,58.1,25.1,30.25,SW,232,1.0,2.0,28,0.00,,,0.00,Wunderground v.1.15,2013-02-17 22:10:00,
2013-02-17 17:20:00,57.7,23.9,30.25,WNW,302,1.0,4.0,27,0.00,,,0.00,Wunderground v.1.15,2013-02-17 22:20:00,
2013-02-17 17:30:00,57.1,24.3,30.25,WNW,299,2.0,2.0,28,0.00,,,0.00,Wunderground v.1.15,2013-02-17 22:30:00,
2013-02-17 17:35:00,56.8,24.0,30.25,WNW,285,2.0,2.0,28,0.00,,,0.00,Wunderground v.1.15,2013-02-17 22:35:00,
2013-02-17 17:40:00,56.6,24.7,30.25,WNW,291,1.0,1.0,29,0.00,,,0.00,Wunderground v.1.15,2013-02-17 22:40:00,
2013-02-17 17:45:00,56.5,26.2,30.25,WNW,294,1.0,1.0,31,0.00,,,0.00,Wunderground v.1.15,2013-02-17 22:45:00,
2013-02-17 17:55:00,56.1,25.8,30.26,WNW,285,1.0,1.0,31,0.00,,,0.00,Wunderground v.1.15,2013-02-17 22:55:00,
2013-02-17 18:00:00,55.8,24.8,30.26,West,271,1.0,1.0,30,0.00,,,0.00,Wunderground v.1.15,2013-02-17 23:00:00,
2013-02-17 18:10:00,55.3,25.1,30.26,NW,314,1.0,1.0,31,0.00,,,0.00,Wunderground v.1.15,2013-02-17 23:10:00,
2013-02-17 18:20:00,54.7,26.8,30.26,NW,309,0.0,0.0,34,0.00,,,0.00,Wunderground v.1.15,2013-02-17 23:20:00,
2013-02-17 18:25:00,54.3,27.2,30.26,NW,309,0.0,2.0,35,0.00,,,0.00,Wunderground v.1.15,2013-02-17 23:25:00,
2013-02-17 18:30:00,53.9,27.5,30.26,NW,314,0.0,0.0,36,0.00,,,0.00,Wunderground v.1.15,2013-02-17 23:30:00,
2013-02-17 18:35:00,53.7,28.0,30.26,West,267,0.0,0.0,37,0.00,,,0.00,Wunderground v.1.15,2013-02-17 23:35:00,
2013-02-17 18:45:00,53.1,28.1,30.27,West,263,0.0,0.0,38,0.00,,,0.00,Wunderground v.1.15,2013-02-17 23:45:00,
2013-02-17 18:55:00,52.6,28.3,30.28,WNW,290,0.0,1.0,39,0.00,,,0.00,Wunderground v.1.15,2013-02-17 23:55:00,
2013-02-17 19:00:00,52.4,27.5,30.28,WSW,251,0.0,1.0,38,0.00,,,0.00,Wunderground v.1.15,2013-02-18 00:00:00,
2013-02-17 19:10:00,52.2,28.0,30.28,NW,317,0.0,0.0,39,0.00,,,0.00,Wunderground v.1.15,2013-02-18 00:10:00,
2013-02-17 19:20:00,52.0,29.0,30.28,WSW,258,0.0,0.0,41,0.00,,,0.00,Wunderground v.1.15,2013-02-18 00:20:00,
2013-02-17 19:30:00,51.7,29.3,30.28,NW,305,0.0,1.0,42,0.00,,,0.00,Wunderground v.1.15,2013-02-18 00:30:00,
2013-02-17 19:40:00,52.0,30.2,30.28,WNW,291,1.0,1.0,43,0.00,,,0.00,Wunderground v.1.15,2013-02-18 00:40:00,
2013-02-17 19:50:00,52.1,31.9,30.28,WSW,246,1.0,1.0,46,0.00,,,0.00,Wunderground v.1.15,2013-02-18 00:50:00,
2013-02-17 20:00:00,51.6,31.5,30.29,NW,322,1.0,3.0,46,0.00,,,0.00,Wunderground v.1.15,2013-02-18 01:00:00,
2013-02-17 20:10:00,51.6,31.5,30.29,WNW,302,2.0,2.0,46,0.00,,,0.00,Wunderground v.1.15,2013-02-18 01:10:00,
2013-02-17 20:20:00,51.4,32.3,30.29,NW,308,1.0,1.0,48,0.00,,,0.00,Wunderground v.1.15,2013-02-18 01:20:00,
2013-02-17 20:30:00,51.0,32.5,30.30,WNW,293,1.0,2.0,49,0.00,,,0.00,Wunderground v.1.15,2013-02-18 01:30:00,
2013-02-17 20:40:00,50.6,32.6,30.30,NW,307,1.0,1.0,50,0.00,,,0.00,Wunderground v.1.15,2013-02-18 01:40:00,
2013-02-17 20:45:00,50.5,32.0,30.30,West,278,1.0,1.0,49,0.00,,,0.00,Wunderground v.1.15,2013-02-18 01:45:00,
2013-02-17 20:55:00,50.4,32.4,30.30,NW,310,1.0,2.0,50,0.00,,,0.00,Wunderground v.1.15,2013-02-18 01:55:00,
2013-02-17 21:00:00,50.3,32.4,30.30,West,281,1.0,1.0,50,0.00,,,0.00,Wunderground v.1.15,2013-02-18 02:00:00,
2013-02-17 21:10:00,50.3,32.8,30.29,WNW,300,1.0,1.0,51,0.00,,,0.00,Wunderground v.1.15,2013-02-18 02:10:00,
2013-02-17 21:20:00,50.2,33.2,30.30,WNW,300,1.0,1.0,52,0.00,,,0.00,Wunderground v.1.15,2013-02-18 02:20:00,
2013-02-17 21:30:00,49.9,33.4,30.30,West,271,0.0,1.0,53,0.00,,,0.00,Wunderground v.1.15,2013-02-18 02:30:00,
2013-02-17 21:40:00,49.8,34.3,30.30,WNW,297,1.0,1.0,55,0.00,,,0.00,Wunderground v.1.15,2013-02-18 02:40:00,
2013-02-17 21:50:00,49.7,34.6,30.30,WSW,245,1.0,1.0,56,0.00,,,0.00,Wunderground v.1.15,2013-02-18 02:50:00,
2013-02-17 22:00:00,49.6,35.0,30.30,WNW,287,1.0,1.0,57,0.00,,,0.00,Wunderground v.1.15,2013-02-18 03:00:00,
2013-02-17 22:10:00,49.6,35.4,30.30,WNW,300,0.0,1.0,58,0.00,,,0.00,Wunderground v.1.15,2013-02-18 03:10:00,
2013-02-17 22:20:00,49.5,36.2,30.30,NW,324,1.0,1.0,60,0.00,,,0.00,Wunderground v.1.15,2013-02-18 03:20:00,
2013-02-17 22:30:00,49.6,37.5,30.30,West,271,1.0,1.0,63,0.00,,,0.00,Wunderground v.1.15,2013-02-18 03:30:00,
2013-02-17 22:40:00,49.7,38.0,30.30,WNW,302,1.0,2.0,64,0.00,,,0.00,Wunderground v.1.15,2013-02-18 03:40:00,
2013-02-17 22:50:00,49.6,37.9,30.31,WSW,238,1.0,1.0,64,0.00,,,0.00,Wunderground v.1.15,2013-02-18 03:50:00,
2013-02-17 23:00:00,49.7,38.0,30.30,NW,321,0.0,0.0,64,0.00,,,0.00,Wunderground v.1.15,2013-02-18 04:00:00,
2013-02-17 23:10:00,49.7,38.0,30.30,West,281,1.0,5.0,64,0.00,,,0.00,Wunderground v.1.15,2013-02-18 04:10:00,
2013-02-17 23:20:00,49.7,38.0,30.30,WNW,293,1.0,1.0,64,0.00,,,0.00,Wunderground v.1.15,2013-02-18 04:20:00,
2013-02-17 23:30:00,49.7,38.0,30.30,WSW,251,1.0,2.0,64,0.00,,,0.00,Wunderground v.1.15,2013-02-18 04:30:00,
2013-02-17 23:40:00,49.7,38.0,30.30,West,281,1.0,1.0,64,0.00,,,0.00,Wunderground v.1.15,2013-02-18 04:40:00,
2013-02-17 23:45:00,49.8,38.1,30.30,NNW,332,2.0,2.0,64,0.00,,,0.00,Wunderground v.1.15,2013-02-18 04:45:00,
2013-02-17 23:55:00,49.7,38.4,30.30,NW,322,1.0,2.0,65,0.00,,,0.00,Wunderground v.1.15,2013-02-18 04:55:00,